Nathans Creek, North Carolina
Current Conditions -  °F | °C
As of 2:35 PM on Saturday 25 Oct 2014 (Local Time) from KGEV Reporting Station
Clear Clear  
Wind Chill: 65°   Ceiling: Unl
Heat Index: 65°   Visibility: 10mi
Dew Point: 31°   Wind: 9mph
Humidity: 28%   Direction: 270°W
Pressure: 30.02"   Gusts: NA
Location:  36.484°N, 81.3801°W
Report Text: KGEV 251835Z AUTO 27008KT 230V290 10SM CLR 18/M01 A3002 RMK AO2 T01841006
Loading
Personal Weather Stations






























Interactive Weather Map
Tropical Storm Tracking
New forecast layout! Learn more

10-Day Weather Forecast

Advertisements
Track Severe Weather on mobile